sensor_id;sensor_type;location;lat;lon;timestamp;pressure;altitude;pressure_sealevel;temperature;humidity
4022;BME280;2025;48.260;16.432;2023-07-30T00:01:07;99431.25;;;22.71;57.09
4022;BME280;2025;48.260;16.432;2023-07-30T00:03:34;99429.34;;;22.71;57.50
4022;BME280;2025;48.260;16.432;2023-07-30T00:06:01;99433.41;;;22.74;57.56
4022;BME280;2025;48.260;16.432;2023-07-30T00:08:28;99429.94;;;22.79;57.18
4022;BME280;2025;48.260;16.432;2023-07-30T00:10:57;99419.75;;;22.81;57.11
4022;BME280;2025;48.260;16.432;2023-07-30T00:13:24;99413.03;;;22.78;57.29
4022;BME280;2025;48.260;16.432;2023-07-30T00:15:51;99418.66;;;22.77;57.22
4022;BME280;2025;48.260;16.432;2023-07-30T00:18:18;99414.91;;;22.78;57.34
4022;BME280;2025;48.260;16.432;2023-07-30T00:20:45;99419.19;;;22.73;57.50
4022;BME280;2025;48.260;16.432;2023-07-30T00:23:12;99410.88;;;22.75;57.16
4022;BME280;2025;48.260;16.432;2023-07-30T00:25:39;99408.72;;;22.77;56.92
4022;BME280;2025;48.260;16.432;2023-07-30T00:28:07;99407.13;;;22.81;56.51
4022;BME280;2025;48.260;16.432;2023-07-30T00:30:34;99406.81;;;22.72;57.50
4022;BME280;2025;48.260;16.432;2023-07-30T00:33:01;99413.81;;;22.73;56.62
4022;BME280;2025;48.260;16.432;2023-07-30T00:35:28;99406.81;;;22.72;56.67
4022;BME280;2025;48.260;16.432;2023-07-30T00:37:55;99403.59;;;22.70;56.25
4022;BME280;2025;48.260;16.432;2023-07-30T00:40:22;99397.16;;;22.71;56.25
4022;BME280;2025;48.260;16.432;2023-07-30T00:42:49;99388.28;;;22.71;56.27
4022;BME280;2025;48.260;16.432;2023-07-30T00:45:18;99386.44;;;22.77;55.62
4022;BME280;2025;48.260;16.432;2023-07-30T00:47:45;99384.28;;;22.73;56.17
4022;BME280;2025;48.260;16.432;2023-07-30T00:50:13;99379.97;;;22.72;56.58
4022;BME280;2025;48.260;16.432;2023-07-30T00:52:42;99376.47;;;22.72;56.03
4022;BME280;2025;48.260;16.432;2023-07-30T00:55:10;99386.41;;;22.71;56.01
4022;BME280;2025;48.260;16.432;2023-07-30T00:57:37;99380.72;;;22.68;56.51
4022;BME280;2025;48.260;16.432;2023-07-30T01:00:07;99380.47;;;22.64;56.49
4022;BME280;2025;48.260;16.432;2023-07-30T01:02:36;99373.44;;;22.63;56.83
4022;BME280;2025;48.260;16.432;2023-07-30T01:05:04;99370.75;;;22.58;57.02
4022;BME280;2025;48.260;16.432;2023-07-30T01:07:31;99375.06;;;22.59;57.37
4022;BME280;2025;48.260;16.432;2023-07-30T01:09:58;99370.47;;;22.55;56.91
4022;BME280;2025;48.260;16.432;2023-07-30T01:12:26;99370.44;;;22.49;57.34
4022;BME280;2025;48.260;16.432;2023-07-30T01:14:56;99372.34;;;22.54;57.69
4022;BME280;2025;48.260;16.432;2023-07-30T01:17:24;99364.22;;;22.49;57.42
4022;BME280;2025;48.260;16.432;2023-07-30T01:19:54;99358.59;;;22.45;57.40
4022;BME280;2025;48.260;16.432;2023-07-30T01:22:22;99354.00;;;22.41;57.90
4022;BME280;2025;48.260;16.432;2023-07-30T01:24:50;99360.41;;;22.40;57.93
4022;BME280;2025;48.260;16.432;2023-07-30T01:27:22;99364.97;;;22.39;58.05
4022;BME280;2025;48.260;16.432;2023-07-30T01:29:51;99370.56;;;22.38;57.83
4022;BME280;2025;48.260;16.432;2023-07-30T01:32:24;99372.75;;;22.36;57.99
4022;BME280;2025;48.260;16.432;2023-07-30T01:34:52;99375.41;;;22.36;57.96
4022;BME280;2025;48.260;16.432;2023-07-30T01:37:22;99371.41;;;22.38;57.90
4022;BME280;2025;48.260;16.432;2023-07-30T01:39:49;99378.63;;;22.38;58.21
4022;BME280;2025;48.260;16.432;2023-07-30T01:42:17;99373.22;;;22.33;58.15
4022;BME280;2025;48.260;16.432;2023-07-30T01:44:44;99370.81;;;22.31;58.12
4022;BME280;2025;48.260;16.432;2023-07-30T01:47:11;99373.75;;;22.29;58.51
4022;BME280;2025;48.260;16.432;2023-07-30T01:49:38;99367.81;;;22.27;58.43
4022;BME280;2025;48.260;16.432;2023-07-30T01:52:05;99369.16;;;22.25;58.66
4022;BME280;2025;48.260;16.432;2023-07-30T01:54:33;99370.47;;;22.22;59.20
4022;BME280;2025;48.260;16.432;2023-07-30T01:57:00;99367.72;;;22.17;58.57
4022;BME280;2025;48.260;16.432;2023-07-30T01:59:27;99369.03;;;22.15;59.01
4022;BME280;2025;48.260;16.432;2023-07-30T02:01:54;99375.97;;;22.10;59.25
4022;BME280;2025;48.260;16.432;2023-07-30T02:04:21;99374.09;;;22.11;58.90
4022;BME280;2025;48.260;16.432;2023-07-30T02:06:48;99376.72;;;22.06;59.85
4022;BME280;2025;48.260;16.432;2023-07-30T02:09:15;99371.31;;;22.01;59.66
4022;BME280;2025;48.260;16.432;2023-07-30T02:11:43;99374.25;;;21.99;59.40
4022;BME280;2025;48.260;16.432;2023-07-30T02:14:10;99375.03;;;22.00;59.71
4022;BME280;2025;48.260;16.432;2023-07-30T02:16:37;99388.22;;;22.01;59.50
4022;BME280;2025;48.260;16.432;2023-07-30T02:19:04;99374.00;;;22.01;59.38
4022;BME280;2025;48.260;16.432;2023-07-30T02:21:31;99373.50;;;22.04;59.48
4022;BME280;2025;48.260;16.432;2023-07-30T02:24:01;99367.03;;;22.05;59.55
4022;BME280;2025;48.260;16.432;2023-07-30T02:26:28;99362.00;;;22.08;59.17
4022;BME280;2025;48.260;16.432;2023-07-30T02:28:56;99360.88;;;22.04;59.33
4022;BME280;2025;48.260;16.432;2023-07-30T02:31:25;99364.38;;;22.05;59.80
4022;BME280;2025;48.260;16.432;2023-07-30T02:33:52;99361.63;;;22.00;59.46
4022;BME280;2025;48.260;16.432;2023-07-30T02:36:19;99350.13;;;21.99;59.75
4022;BME280;2025;48.260;16.432;2023-07-30T02:38:46;99347.13;;;21.96;59.88
4022;BME280;2025;48.260;16.432;2023-07-30T02:41:13;99360.53;;;21.96;59.46
4022;BME280;2025;48.260;16.432;2023-07-30T02:43:40;99365.09;;;21.95;59.48
4022;BME280;2025;48.260;16.432;2023-07-30T02:46:08;99377.94;;;21.93;59.75
4022;BME280;2025;48.260;16.432;2023-07-30T02:48:35;99379.28;;;21.96;59.30
4022;BME280;2025;48.260;16.432;2023-07-30T02:51:02;99383.59;;;21.97;59.06
4022;BME280;2025;48.260;16.432;2023-07-30T02:53:29;99390.09;;;22.01;58.99
4022;BME280;2025;48.260;16.432;2023-07-30T02:55:56;99380.97;;;22.02;59.12
4022;BME280;2025;48.260;16.432;2023-07-30T02:58:23;99377.53;;;22.06;58.31
4022;BME280;2025;48.260;16.432;2023-07-30T03:00:50;99363.31;;;22.06;58.70
4022;BME280;2025;48.260;16.432;2023-07-30T03:03:18;99361.44;;;22.06;58.79
4022;BME280;2025;48.260;16.432;2023-07-30T03:05:45;99368.63;;;22.01;58.50
4022;BME280;2025;48.260;16.432;2023-07-30T03:08:12;99367.28;;;21.98;58.90
4022;BME280;2025;48.260;16.432;2023-07-30T03:10:39;99360.25;;;21.92;58.95
4022;BME280;2025;48.260;16.432;2023-07-30T03:13:06;99364.47;;;21.88;59.04
4022;BME280;2025;48.260;16.432;2023-07-30T03:15:33;99360.69;;;21.84;59.58
4022;BME280;2025;48.260;16.432;2023-07-30T03:18:00;99365.75;;;21.80;59.23
4022;BME280;2025;48.260;16.432;2023-07-30T03:20:29;99367.63;;;21.80;59.61
4022;BME280;2025;48.260;16.432;2023-07-30T03:22:55;99357.16;;;21.78;59.15
4022;BME280;2025;48.260;16.432;2023-07-30T03:25:22;99352.34;;;21.80;59.32
4022;BME280;2025;48.260;16.432;2023-07-30T03:27:49;99358.22;;;21.77;59.45
4022;BME280;2025;48.260;16.432;2023-07-30T03:30:16;99353.66;;;21.78;59.92
4022;BME280;2025;48.260;16.432;2023-07-30T03:32:43;99351.00;;;21.78;59.84
4022;BME280;2025;48.260;16.432;2023-07-30T03:35:10;99346.66;;;21.77;59.61
4022;BME280;2025;48.260;16.432;2023-07-30T03:37:39;99360.16;;;21.82;59.73
4022;BME280;2025;48.260;16.432;2023-07-30T03:40:07;99354.72;;;21.77;60.13
4022;BME280;2025;48.260;16.432;2023-07-30T03:42:34;99360.34;;;21.75;59.82
4022;BME280;2025;48.260;16.432;2023-07-30T03:45:01;99361.94;;;21.76;60.92
4022;BME280;2025;48.260;16.432;2023-07-30T03:47:28;99353.34;;;21.74;60.81
4022;BME280;2025;48.260;16.432;2023-07-30T03:49:55;99354.47;;;21.78;60.39
4022;BME280;2025;48.260;16.432;2023-07-30T03:52:22;99366.00;;;21.79;60.23
4022;BME280;2025;48.260;16.432;2023-07-30T03:54:50;99364.38;;;21.78;60.04
4022;BME280;2025;48.260;16.432;2023-07-30T03:57:17;99370.03;;;21.81;60.37
4022;BME280;2025;48.260;16.432;2023-07-30T03:59:44;99373.00;;;21.80;59.65
4022;BME280;2025;48.260;16.432;2023-07-30T04:02:11;99369.22;;;21.81;60.10
4022;BME280;2025;48.260;16.432;2023-07-30T04:04:41;99374.03;;;21.79;60.22
4022;BME280;2025;48.260;16.432;2023-07-30T04:07:09;99375.91;;;21.78;60.25
4022;BME280;2025;48.260;16.432;2023-07-30T04:09:36;99375.66;;;21.80;60.18
4022;BME280;2025;48.260;16.432;2023-07-30T04:12:05;99383.44;;;21.81;60.33
4022;BME280;2025;48.260;16.432;2023-07-30T04:14:31;99375.97;;;21.83;60.37
4022;BME280;2025;48.260;16.432;2023-07-30T04:16:58;99378.59;;;21.78;60.03
4022;BME280;2025;48.260;16.432;2023-07-30T04:19:25;99378.59;;;21.78;60.20
4022;BME280;2025;48.260;16.432;2023-07-30T04:21:53;99382.63;;;21.81;60.36
4022;BME280;2025;48.260;16.432;2023-07-30T04:24:20;99382.88;;;21.79;60.68
4022;BME280;2025;48.260;16.432;2023-07-30T04:26:46;99375.97;;;21.83;60.32
4022;BME280;2025;48.260;16.432;2023-07-30T04:29:15;99373.28;;;21.83;61.14
4022;BME280;2025;48.260;16.432;2023-07-30T04:31:42;99379.44;;;21.84;60.63
4022;BME280;2025;48.260;16.432;2023-07-30T04:34:09;99375.97;;;21.83;60.70
4022;BME280;2025;48.260;16.432;2023-07-30T04:36:36;99392.34;;;21.87;59.96
4022;BME280;2025;48.260;16.432;2023-07-30T04:39:02;99379.25;;;21.91;60.22
4022;BME280;2025;48.260;16.432;2023-07-30T04:41:29;99384.59;;;21.91;60.13
4022;BME280;2025;48.260;16.432;2023-07-30T04:43:56;99392.44;;;21.97;60.04
4022;BME280;2025;48.260;16.432;2023-07-30T04:46:25;99385.72;;;21.95;60.46
4022;BME280;2025;48.260;16.432;2023-07-30T04:48:52;99391.09;;;21.95;60.22
4022;BME280;2025;48.260;16.432;2023-07-30T04:51:19;99393.25;;;21.98;59.84
4022;BME280;2025;48.260;16.432;2023-07-30T04:53:46;99397.31;;;22.00;60.20
4022;BME280;2025;48.260;16.432;2023-07-30T04:56:13;99387.09;;;21.97;60.68
4022;BME280;2025;48.260;16.432;2023-07-30T04:58:40;99398.63;;;21.98;60.55
4022;BME280;2025;48.260;16.432;2023-07-30T05:01:07;99389.06;;;22.07;61.44
4022;BME280;2025;48.260;16.432;2023-07-30T05:03:35;99402.41;;;22.02;60.46
4022;BME280;2025;48.260;16.432;2023-07-30T05:06:02;99404.06;;;22.03;60.69
4022;BME280;2025;48.260;16.432;2023-07-30T05:08:29;99407.25;;;22.05;61.17
4022;BME280;2025;48.260;16.432;2023-07-30T05:10:56;99408.91;;;22.06;60.83
4022;BME280;2025;48.260;16.432;2023-07-30T05:13:23;99406.50;;;22.09;61.14
4022;BME280;2025;48.260;16.432;2023-07-30T05:15:50;99406.31;;;22.16;60.94
4022;BME280;2025;48.260;16.432;2023-07-30T05:18:17;99410.75;;;22.27;60.52
4022;BME280;2025;48.260;16.432;2023-07-30T05:20:47;99410.75;;;22.27;61.35
4022;BME280;2025;48.260;16.432;2023-07-30T05:23:14;99416.31;;;22.21;61.14
4022;BME280;2025;48.260;16.432;2023-07-30T05:25:41;99407.50;;;22.25;61.11
4022;BME280;2025;48.260;16.432;2023-07-30T05:28:08;99404.81;;;22.25;61.19
4022;BME280;2025;48.260;16.432;2023-07-30T05:30:35;99401.66;;;22.28;60.51
4022;BME280;2025;48.260;16.432;2023-07-30T05:33:02;99407.06;;;22.34;60.34
4022;BME280;2025;48.260;16.432;2023-07-30T05:35:29;99404.94;;;22.36;59.57
4022;BME280;2025;48.260;16.432;2023-07-30T05:37:57;99394.22;;;22.41;60.35
4022;BME280;2025;48.260;16.432;2023-07-30T05:40:24;99398.53;;;22.42;60.55
4022;BME280;2025;48.260;16.432;2023-07-30T05:42:51;99396.13;;;22.40;60.12
4022;BME280;2025;48.260;16.432;2023-07-30T05:45:18;99387.50;;;22.38;59.39
4022;BME280;2025;48.260;16.432;2023-07-30T05:47:45;99390.44;;;22.37;59.66
4022;BME280;2025;48.260;16.432;2023-07-30T05:50:12;99382.13;;;22.38;59.59
4022;BME280;2025;48.260;16.432;2023-07-30T05:52:38;99384.50;;;22.35;59.77
4022;BME280;2025;48.260;16.432;2023-07-30T05:55:08;99378.13;;;22.41;59.34
4022;BME280;2025;48.260;16.432;2023-07-30T05:57:35;99374.38;;;22.42;59.45
4022;BME280;2025;48.260;16.432;2023-07-30T06:00:02;99378.63;;;22.38;59.40
4022;BME280;2025;48.260;16.432;2023-07-30T06:02:29;99378.13;;;22.41;59.69
4022;BME280;2025;48.260;16.432;2023-07-30T06:04:56;99389.97;;;22.45;59.51
4022;BME280;2025;48.260;16.432;2023-07-30T06:07:23;99394.78;;;22.43;59.44
4022;BME280;2025;48.260;16.432;2023-07-30T06:09:50;99396.41;;;22.44;59.34
4022;BME280;2025;48.260;16.432;2023-07-30T06:12:19;99400.19;;;22.48;59.53
4022;BME280;2025;48.260;16.432;2023-07-30T06:14:47;99393.81;;;22.54;59.28
4022;BME280;2025;48.260;16.432;2023-07-30T06:17:14;99408.59;;;22.57;58.96
4022;BME280;2025;48.260;16.432;2023-07-30T06:19:41;99406.97;;;22.61;58.39
4022;BME280;2025;48.260;16.432;2023-07-30T06:22:08;99409.66;;;22.61;58.35
4022;BME280;2025;48.260;16.432;2023-07-30T06:24:35;99405.16;;;22.66;57.77
4022;BME280;2025;48.260;16.432;2023-07-30T06:27:02;99415.69;;;22.73;58.63
4022;BME280;2025;48.260;16.432;2023-07-30T06:29:30;99412.09;;;22.62;58.26
4022;BME280;2025;48.260;16.432;2023-07-30T06:31:57;99412.41;;;22.66;58.34
4022;BME280;2025;48.260;16.432;2023-07-30T06:34:24;99411.56;;;22.60;59.43
4022;BME280;2025;48.260;16.432;2023-07-30T06:36:51;99414.78;;;22.62;59.09
4022;BME280;2025;48.260;16.432;2023-07-30T06:39:18;99408.28;;;22.53;59.50
4022;BME280;2025;48.260;16.432;2023-07-30T06:41:45;99417.16;;;22.59;60.07
4022;BME280;2025;48.260;16.432;2023-07-30T06:44:12;99417.63;;;22.45;59.81
4022;BME280;2025;48.260;16.432;2023-07-30T06:46:41;99417.47;;;22.30;60.18
4022;BME280;2025;48.260;16.432;2023-07-30T06:49:08;99417.09;;;22.21;61.13
4022;BME280;2025;48.260;16.432;2023-07-30T06:51:35;99429.59;;;22.10;61.12
4022;BME280;2025;48.260;16.432;2023-07-30T06:54:02;99431.31;;;21.95;61.69
4022;BME280;2025;48.260;16.432;2023-07-30T06:56:29;99440.00;;;21.80;62.09
4022;BME280;2025;48.260;16.432;2023-07-30T06:58:56;99439.91;;;21.75;62.40
4022;BME280;2025;48.260;16.432;2023-07-30T07:01:23;99444.53;;;21.79;62.86
4022;BME280;2025;48.260;16.432;2023-07-30T07:03:51;99446.09;;;21.75;62.88
4022;BME280;2025;48.260;16.432;2023-07-30T07:06:18;99448.16;;;21.68;63.77
4022;BME280;2025;48.260;16.432;2023-07-30T07:08:45;99454.38;;;21.52;64.74
4022;BME280;2025;48.260;16.432;2023-07-30T07:11:12;99451.22;;;21.38;64.93
4022;BME280;2025;48.260;16.432;2023-07-30T07:13:39;99461.94;;;21.38;66.60
4022;BME280;2025;48.260;16.432;2023-07-30T07:16:06;99467.94;;;21.28;65.84
4022;BME280;2025;48.260;16.432;2023-07-30T07:18:33;99481.19;;;21.18;67.33
4022;BME280;2025;48.260;16.432;2023-07-30T07:21:01;99483.75;;;21.08;67.78
4022;BME280;2025;48.260;16.432;2023-07-30T07:23:28;99478.38;;;20.91;67.93
4022;BME280;2025;48.260;16.432;2023-07-30T07:25:55;99487.53;;;20.95;69.03
4022;BME280;2025;48.260;16.432;2023-07-30T07:28:22;99496.94;;;20.97;70.51
4022;BME280;2025;48.260;16.432;2023-07-30T07:30:49;99481.63;;;20.76;72.33
4022;BME280;2025;48.260;16.432;2023-07-30T07:33:17;99488.19;;;20.68;73.57
4022;BME280;2025;48.260;16.432;2023-07-30T07:35:44;99488.19;;;20.68;72.86
4022;BME280;2025;48.260;16.432;2023-07-30T07:38:12;99485.22;;;20.53;73.38
4022;BME280;2025;48.260;16.432;2023-07-30T07:40:39;99477.31;;;20.58;75.11
4022;BME280;2025;48.260;16.432;2023-07-30T07:43:07;99478.94;;;20.59;75.18
4022;BME280;2025;48.260;16.432;2023-07-30T07:45:34;99474.97;;;20.61;73.52
4022;BME280;2025;48.260;16.432;2023-07-30T07:48:01;99471.84;;;20.53;75.88
4022;BME280;2025;48.260;16.432;2023-07-30T07:50:28;99478.97;;;20.47;74.75
4022;BME280;2025;48.260;16.432;2023-07-30T07:52:55;99476.75;;;20.44;76.32
4022;BME280;2025;48.260;16.432;2023-07-30T07:55:23;99483.00;;;20.33;76.62
4022;BME280;2025;48.260;16.432;2023-07-30T07:57:50;99484.25;;;20.30;77.55
4022;BME280;2025;48.260;16.432;2023-07-30T08:00:17;99488.00;;;20.29;76.37
4022;BME280;2025;48.260;16.432;2023-07-30T08:02:45;99487.06;;;20.35;77.39
4022;BME280;2025;48.260;16.432;2023-07-30T08:05:11;99490.84;;;20.39;75.13
4022;BME280;2025;48.260;16.432;2023-07-30T08:07:38;99486.28;;;20.52;73.87
4022;BME280;2025;48.260;16.432;2023-07-30T08:10:06;99494.41;;;20.57;75.23
4022;BME280;2025;48.260;16.432;2023-07-30T08:12:35;99487.13;;;20.69;74.08
4022;BME280;2025;48.260;16.432;2023-07-30T08:15:02;99489.91;;;20.91;73.08
4022;BME280;2025;48.260;16.432;2023-07-30T08:17:29;99500.69;;;20.96;72.96
4022;BME280;2025;48.260;16.432;2023-07-30T08:19:56;99500.69;;;20.96;71.17
4022;BME280;2025;48.260;16.432;2023-07-30T08:22:23;99497.22;;;20.96;70.80
4022;BME280;2025;48.260;16.432;2023-07-30T08:24:50;99494.03;;;20.99;69.54
4022;BME280;2025;48.260;16.432;2023-07-30T08:27:17;99499.69;;;21.02;69.98
4022;BME280;2025;48.260;16.432;2023-07-30T08:29:45;99503.28;;;21.08;70.03
4022;BME280;2025;48.260;16.432;2023-07-30T08:32:12;99509.13;;;21.05;69.11
4022;BME280;2025;48.260;16.432;2023-07-30T08:34:39;99511.09;;;21.10;70.00
4022;BME280;2025;48.260;16.432;2023-07-30T08:37:06;99499.31;;;21.11;69.55
4022;BME280;2025;48.260;16.432;2023-07-30T08:39:33;99511.53;;;21.07;70.92
4022;BME280;2025;48.260;16.432;2023-07-30T08:42:00;99510.00;;;21.11;70.30
4022;BME280;2025;48.260;16.432;2023-07-30T08:44:27;99508.78;;;21.18;70.45
4022;BME280;2025;48.260;16.432;2023-07-30T08:46:56;99500.75;;;21.35;69.16
4022;BME280;2025;48.260;16.432;2023-07-30T08:49:23;99499.78;;;21.41;68.97
4022;BME280;2025;48.260;16.432;2023-07-30T08:51:54;99503.25;;;21.42;68.71
4022;BME280;2025;48.260;16.432;2023-07-30T08:54:22;99500.03;;;21.40;68.39
4022;BME280;2025;48.260;16.432;2023-07-30T08:56:50;99508.44;;;21.49;68.61
4022;BME280;2025;48.260;16.432;2023-07-30T08:59:18;99495.28;;;21.64;68.59
4022;BME280;2025;48.260;16.432;2023-07-30T09:01:47;99496.69;;;21.72;67.25
4022;BME280;2025;48.260;16.432;2023-07-30T09:04:18;99494.84;;;21.94;67.13
4022;BME280;2025;48.260;16.432;2023-07-30T09:06:48;99484.25;;;22.26;65.91
4022;BME280;2025;48.260;16.432;2023-07-30T09:09:15;99491.53;;;22.63;64.94
4022;BME280;2025;48.260;16.432;2023-07-30T09:11:42;99484.88;;;22.66;64.37
4022;BME280;2025;48.260;16.432;2023-07-30T09:14:09;99475.53;;;23.01;64.20
4022;BME280;2025;48.260;16.432;2023-07-30T09:16:36;99478.63;;;23.25;63.55
4022;BME280;2025;48.260;16.432;2023-07-30T09:19:05;99480.66;;;23.50;63.16
4022;BME280;2025;48.260;16.432;2023-07-30T09:21:34;99476.63;;;23.52;61.78
4022;BME280;2025;48.260;16.432;2023-07-30T09:24:05;99464.88;;;23.69;63.57
4022;BME280;2025;48.260;16.432;2023-07-30T09:26:42;99455.31;;;23.98;60.09
4022;BME280;2025;48.260;16.432;2023-07-30T09:29:10;99465.31;;;24.13;60.67
4022;BME280;2025;48.260;16.432;2023-07-30T09:31:46;99460.25;;;24.27;60.92
4022;BME280;2025;48.260;16.432;2023-07-30T09:34:15;99461.94;;;24.64;58.13
4022;BME280;2025;48.260;16.432;2023-07-30T09:36:45;99447.38;;;24.65;57.60
4022;BME280;2025;48.260;16.432;2023-07-30T09:39:16;99443.84;;;24.80;56.45
4022;BME280;2025;48.260;16.432;2023-07-30T09:41:44;99447.63;;;24.79;55.83
4022;BME280;2025;48.260;16.432;2023-07-30T09:44:11;99448.72;;;24.52;56.48
4022;BME280;2025;48.260;16.432;2023-07-30T09:46:45;99430.63;;;24.43;56.30
4022;BME280;2025;48.260;16.432;2023-07-30T09:49:12;99437.69;;;24.64;55.29
4022;BME280;2025;48.260;16.432;2023-07-30T09:51:39;99431.22;;;24.80;55.19
4022;BME280;2025;48.260;16.432;2023-07-30T09:54:09;99434.13;;;25.10;56.51
4022;BME280;2025;48.260;16.432;2023-07-30T09:56:37;99424.44;;;25.09;54.77
4022;BME280;2025;48.260;16.432;2023-07-30T09:59:05;99435.72;;;25.26;54.33
4022;BME280;2025;48.260;16.432;2023-07-30T10:01:33;99428.34;;;25.62;52.93
4022;BME280;2025;48.260;16.432;2023-07-30T10:04:07;99419.44;;;25.57;53.23
4022;BME280;2025;48.260;16.432;2023-07-30T10:06:39;99427.16;;;24.93;54.24
4022;BME280;2025;48.260;16.432;2023-07-30T10:09:07;99412.31;;;25.01;53.92
4022;BME280;2025;48.260;16.432;2023-07-30T10:11:36;99410.06;;;25.44;53.79
4022;BME280;2025;48.260;16.432;2023-07-30T10:14:04;99409.25;;;25.49;52.45
4022;BME280;2025;48.260;16.432;2023-07-30T10:16:31;99416.59;;;25.33;52.90
4022;BME280;2025;48.260;16.432;2023-07-30T10:18:59;99420.13;;;25.23;53.99
4022;BME280;2025;48.260;16.432;2023-07-30T10:21:26;99426.91;;;24.90;55.36
4022;BME280;2025;48.260;16.432;2023-07-30T10:24:00;99427.47;;;24.71;55.47
4022;BME280;2025;48.260;16.432;2023-07-30T10:26:30;99417.19;;;24.27;55.48
4022;BME280;2025;48.260;16.432;2023-07-30T10:29:14;99418.78;;;24.18;56.21
4022;BME280;2025;48.260;16.432;2023-07-30T10:31:43;99418.50;;;24.09;56.10
4022;BME280;2025;48.260;16.432;2023-07-30T10:34:11;99419.00;;;23.96;56.22
4022;BME280;2025;48.260;16.432;2023-07-30T10:36:42;99427.84;;;23.81;57.67
4022;BME280;2025;48.260;16.432;2023-07-30T10:39:14;99435.88;;;23.71;60.42
4022;BME280;2025;48.260;16.432;2023-07-30T10:41:44;99455.03;;;23.37;65.76
4022;BME280;2025;48.260;16.432;2023-07-30T10:44:22;99448.84;;;22.94;67.98
4022;BME280;2025;48.260;16.432;2023-07-30T10:46:49;99456.06;;;22.56;73.77
4022;BME280;2025;48.260;16.432;2023-07-30T10:49:16;99472.94;;;22.24;74.24
4022;BME280;2025;48.260;16.432;2023-07-30T10:51:43;99481.81;;;22.03;74.49
4022;BME280;2025;48.260;16.432;2023-07-30T10:54:09;99483.72;;;21.41;77.06
4022;BME280;2025;48.260;16.432;2023-07-30T10:56:37;99488.19;;;21.02;78.75
4022;BME280;2025;48.260;16.432;2023-07-30T10:59:07;99478.88;;;20.88;81.34
4022;BME280;2025;48.260;16.432;2023-07-30T11:01:36;99469.69;;;20.83;79.67
4022;BME280;2025;48.260;16.432;2023-07-30T11:04:07;99464.59;;;20.99;79.38
4022;BME280;2025;48.260;16.432;2023-07-30T11:06:34;99453.50;;;21.29;78.57
4022;BME280;2025;48.260;16.432;2023-07-30T11:09:01;99454.06;;;21.70;79.31
4022;BME280;2025;48.260;16.432;2023-07-30T11:11:28;99449.22;;;22.38;75.60
4022;BME280;2025;48.260;16.432;2023-07-30T11:13:56;99449.75;;;23.47;71.32
4022;BME280;2025;48.260;16.432;2023-07-30T11:16:25;99446.44;;;23.93;68.74
4022;BME280;2025;48.260;16.432;2023-07-30T11:18:53;99435.38;;;23.79;64.37
4022;BME280;2025;48.260;16.432;2023-07-30T11:21:20;99433.38;;;24.68;63.17
4022;BME280;2025;48.260;16.432;2023-07-30T11:23:47;99435.34;;;25.58;61.24
4022;BME280;2025;48.260;16.432;2023-07-30T11:26:16;99431.69;;;26.38;59.08
4022;BME280;2025;48.260;16.432;2023-07-30T11:28:44;99431.31;;;26.11;56.97
4022;BME280;2025;48.260;16.432;2023-07-30T11:31:12;99435.31;;;25.63;56.80
4022;BME280;2025;48.260;16.432;2023-07-30T11:33:42;99431.16;;;25.16;60.72
4022;BME280;2025;48.260;16.432;2023-07-30T11:36:11;99433.09;;;24.70;61.88
4022;BME280;2025;48.260;16.432;2023-07-30T11:38:39;99438.16;;;24.20;62.78
4022;BME280;2025;48.260;16.432;2023-07-30T11:41:06;99433.34;;;24.22;68.74
4022;BME280;2025;48.260;16.432;2023-07-30T11:43:36;99427.13;;;24.16;64.78
4022;BME280;2025;48.260;16.432;2023-07-30T11:46:09;99427.34;;;23.89;62.74
4022;BME280;2025;48.260;16.432;2023-07-30T11:48:36;99431.69;;;24.16;66.21
4022;BME280;2025;48.260;16.432;2023-07-30T11:51:04;99451.88;;;24.13;66.05
4022;BME280;2025;48.260;16.432;2023-07-30T11:53:45;99458.72;;;23.21;71.22
4022;BME280;2025;48.260;16.432;2023-07-30T11:56:17;99462.03;;;22.31;75.07
4022;BME280;2025;48.260;16.432;2023-07-30T11:58:45;99461.78;;;21.44;78.92
4022;BME280;2025;48.260;16.432;2023-07-30T12:01:13;99454.69;;;20.99;79.25
4022;BME280;2025;48.260;16.432;2023-07-30T12:03:40;99446.75;;;20.71;80.45
4022;BME280;2025;48.260;16.432;2023-07-30T12:06:09;99444.72;;;20.32;77.17
4022;BME280;2025;48.260;16.432;2023-07-30T12:08:37;99445.06;;;20.19;79.99
4022;BME280;2025;48.260;16.432;2023-07-30T12:11:05;99442.06;;;20.32;79.54
4022;BME280;2025;48.260;16.432;2023-07-30T12:13:33;99443.78;;;20.55;80.54
4022;BME280;2025;48.260;16.432;2023-07-30T12:16:00;99441.19;;;20.72;80.63
4022;BME280;2025;48.260;16.432;2023-07-30T12:18:27;99443.75;;;20.84;80.78
4022;BME280;2025;48.260;16.432;2023-07-30T12:20:55;99446.00;;;21.09;79.06
4022;BME280;2025;48.260;16.432;2023-07-30T12:23:24;99443.84;;;21.28;78.77
4022;BME280;2025;48.260;16.432;2023-07-30T12:25:51;99451.16;;;21.50;79.47
4022;BME280;2025;48.260;16.432;2023-07-30T12:28:18;99444.66;;;21.67;76.99
4022;BME280;2025;48.260;16.432;2023-07-30T12:30:46;99438.41;;;21.84;78.20
4022;BME280;2025;48.260;16.432;2023-07-30T12:33:13;99437.13;;;22.14;74.72
4022;BME280;2025;48.260;16.432;2023-07-30T12:35:39;99433.25;;;22.59;77.38
4022;BME280;2025;48.260;16.432;2023-07-30T12:38:06;99437.22;;;23.21;72.20
4022;BME280;2025;48.260;16.432;2023-07-30T12:40:36;99434.41;;;23.48;70.86
4022;BME280;2025;48.260;16.432;2023-07-30T12:43:03;99429.88;;;23.59;71.04
4022;BME280;2025;48.260;16.432;2023-07-30T12:45:30;99436.81;;;23.44;67.31
4022;BME280;2025;48.260;16.432;2023-07-30T12:47:57;99431.81;;;23.10;68.86
4022;BME280;2025;48.260;16.432;2023-07-30T12:50:24;99427.63;;;22.92;70.34
4022;BME280;2025;48.260;16.432;2023-07-30T12:52:51;99425.69;;;22.83;74.67
4022;BME280;2025;48.260;16.432;2023-07-30T12:55:18;99419.97;;;23.06;72.55
4022;BME280;2025;48.260;16.432;2023-07-30T12:57:47;99417.22;;;23.49;71.96
4022;BME280;2025;48.260;16.432;2023-07-30T13:00:14;99417.97;;;24.12;70.42
4022;BME280;2025;48.260;16.432;2023-07-30T13:02:41;99413.94;;;24.92;66.85
4022;BME280;2025;48.260;16.432;2023-07-30T13:05:08;99412.94;;;25.68;65.74
4022;BME280;2025;48.260;16.432;2023-07-30T13:07:35;99408.81;;;26.31;62.13
4022;BME280;2025;48.260;16.432;2023-07-30T13:10:04;99393.31;;;26.76;58.92
4022;BME280;2025;48.260;16.432;2023-07-30T13:12:31;99406.28;;;26.79;57.41